createdAt,value
2023-03-23T15:59:02.072Z,66.36
2023-03-23T16:04:07.692Z,70.32
2023-03-23T16:09:16.175Z,70.11
2023-03-23T16:14:28.713Z,70.63
2023-03-23T16:19:31.278Z,72.10
2023-03-23T16:24:33.804Z,74.17
2023-03-23T16:34:46.008Z,77.58
2023-03-23T16:39:49.585Z,79.46
2023-03-23T16:45:02.310Z,80.24
2023-03-23T16:50:07.649Z,81.62
2023-03-23T16:55:13.460Z,81.85
2023-03-23T17:00:21.251Z,81.39
2023-03-23T17:05:26.831Z,80.21
2023-03-23T17:10:30.454Z,81.31
2023-03-23T17:15:33.153Z,85.58
2023-03-23T17:20:37.111Z,94.17
2023-03-23T17:25:39.852Z,100.00
2023-03-23T17:30:45.321Z,100.00
2023-03-23T17:35:50.308Z,100.00
2023-03-23T17:41:00.764Z,100.00
2023-03-23T17:46:06.215Z,100.00
2023-03-23T17:51:08.936Z,100.00
2023-03-23T17:56:15.473Z,100.00
2023-03-23T18:01:18.171Z,100.00
2023-03-23T18:06:21.591Z,100.00
2023-03-23T18:11:24.137Z,100.00
2023-03-23T18:16:26.797Z,100.00
2023-03-23T18:21:29.851Z,100.00
2023-03-23T18:26:32.757Z,100.00
2023-03-23T18:31:40.899Z,100.00
2023-03-23T18:36:53.864Z,100.00
2023-03-23T18:41:56.726Z,100.00
2023-03-23T18:46:59.545Z,100.00
2023-03-23T18:52:02.341Z,100.00
2023-03-23T18:57:05.740Z,100.00
2023-03-23T19:02:08.769Z,100.00
2023-03-23T19:07:13.283Z,100.00
2023-03-23T19:12:16.603Z,100.00
2023-03-23T19:17:21.319Z,100.00
2023-03-23T19:22:26.720Z,100.00
2023-03-23T19:27:29.264Z,100.00
2023-03-23T19:32:34.222Z,100.00
2023-03-23T19:37:36.989Z,100.00
2023-03-23T19:42:40.512Z,100.00
2023-03-23T19:47:43.321Z,100.00
2023-03-23T19:52:45.945Z,100.00
2023-03-23T19:57:51.389Z,100.00
2023-03-23T20:02:54.206Z,100.00
2023-03-23T20:08:07.540Z,100.00
2023-03-23T20:13:12.673Z,100.00
2023-03-23T20:18:19.461Z,100.00
2023-03-23T20:23:22.991Z,100.00
2023-03-23T20:28:25.685Z,100.00
2023-03-23T20:33:31.299Z,100.00
2023-03-23T20:38:36.527Z,100.00
2023-03-23T20:43:41.164Z,100.00
2023-03-23T20:48:44.890Z,100.00
2023-03-23T20:53:47.476Z,100.00
2023-03-23T20:58:50.452Z,100.00
2023-03-23T21:04:04.204Z,100.00
2023-03-23T21:09:07.908Z,100.00
2023-03-23T21:14:12.283Z,100.00
2023-03-23T21:19:15.087Z,100.00
2023-03-23T21:24:18.209Z,100.00
2023-03-23T21:29:20.878Z,100.00
2023-03-23T21:34:26.956Z,100.00
2023-03-23T21:39:29.832Z,100.00
2023-03-23T21:44:43.068Z,100.00
2023-03-23T21:49:46.836Z,100.00
2023-03-23T21:55:00.340Z,100.00
2023-03-23T22:00:03.070Z,100.00
2023-03-23T22:05:06.799Z,100.00
2023-03-23T22:10:12.598Z,100.00
2023-03-23T22:15:16.026Z,100.00
2023-03-23T22:20:30.228Z,100.00
2023-03-23T22:25:34.387Z,100.00
2023-03-23T22:30:37.097Z,100.00
2023-03-23T22:35:40.096Z,100.00
2023-03-23T22:40:43.482Z,100.00
2023-03-23T22:45:46.245Z,100.00
2023-03-23T22:50:49.554Z,100.00
2023-03-23T22:55:55.686Z,100.00
2023-03-23T23:01:12.655Z,100.00
2023-03-23T23:06:17.564Z,100.00
2023-03-23T23:11:30.666Z,100.00
2023-03-23T23:16:33.562Z,100.00
2023-03-23T23:21:36.490Z,100.00
2023-03-23T23:26:39.443Z,100.00
2023-03-23T23:31:42.290Z,100.00
2023-03-23T23:36:46.943Z,100.00
2023-03-23T23:41:49.934Z,100.00
2023-03-23T23:46:52.750Z,100.00
2023-03-23T23:51:57.425Z,100.00
2023-03-23T23:57:06.877Z,100.00
